Terminal Aerodrome Forecast
Issued by NWS Green Bay, WI

Home | Current Version | Previous Version | Text Only | Print | Product List | Glossary On
Versions: 1 2 3 4 5 6 7 8 9 10 11 12 13 14 15 16 17 18
000
FTUS43 KGRB 300525
TAFGRB
TAF
KGRB 300525Z 3006/0106 05015G27KT P6SM VCSH OVC070
     FM301200 04017G27KT P6SM -SHRA SCT015 OVC030
     FM301500 04018G28KT 5SM -SHRA OVC015
     FM301800 04017G28KT 3SM -RA BR OVC006
     FM302300 05019G26KT 2SM -RA BR OVC004=

USA.gov is the U.S. government's official web portal to all federal, state and local government web resources and services.